sensor_id;sensor_type;location;lat;lon;timestamp;P1;durP1;ratioP1;P2;durP2;ratioP2
2662;SDS011;49701;48.072;7.800;2022-09-29T00:02:15;7.18;;;3.30;;
2662;SDS011;49701;48.072;7.800;2022-09-29T00:04:40;7.72;;;2.80;;
2662;SDS011;49701;48.072;7.800;2022-09-29T00:07:06;6.13;;;2.65;;
2662;SDS011;49701;48.072;7.800;2022-09-29T00:09:31;4.47;;;2.17;;
2662;SDS011;49701;48.072;7.800;2022-09-29T00:11:57;4.45;;;2.20;;
2662;SDS011;49701;48.072;7.800;2022-09-29T00:14:23;4.25;;;1.90;;
2662;SDS011;49701;48.072;7.800;2022-09-29T00:28:57;5.55;;;2.20;;
2662;SDS011;49701;48.072;7.800;2022-09-29T00:31:24;9.68;;;2.33;;
2662;SDS011;49701;48.072;7.800;2022-09-29T00:33:54;3.90;;;2.20;;
2662;SDS011;49701;48.072;7.800;2022-09-29T00:36:20;3.00;;;2.10;;
2662;SDS011;49701;48.072;7.800;2022-09-29T00:38:47;5.20;;;2.53;;
2662;SDS011;49701;48.072;7.800;2022-09-29T00:41:19;2.72;;;2.10;;
2662;SDS011;49701;48.072;7.800;2022-09-29T00:49:12;4.18;;;2.28;;
2662;SDS011;49701;48.072;7.800;2022-09-29T00:51:38;4.95;;;1.95;;
2662;SDS011;49701;48.072;7.800;2022-09-29T00:54:06;6.28;;;2.15;;
2662;SDS011;49701;48.072;7.800;2022-09-29T00:56:34;7.85;;;2.03;;
2662;SDS011;49701;48.072;7.800;2022-09-29T00:59:04;4.45;;;1.95;;
2662;SDS011;49701;48.072;7.800;2022-09-29T01:01:33;3.83;;;2.22;;
2662;SDS011;49701;48.072;7.800;2022-09-29T01:04:03;4.05;;;1.90;;
2662;SDS011;49701;48.072;7.800;2022-09-29T01:06:34;3.87;;;1.70;;
2662;SDS011;49701;48.072;7.800;2022-09-29T01:09:07;3.95;;;2.10;;
2662;SDS011;49701;48.072;7.800;2022-09-29T01:11:35;5.28;;;2.17;;
2662;SDS011;49701;48.072;7.800;2022-09-29T01:14:02;4.18;;;2.08;;
2662;SDS011;49701;48.072;7.800;2022-09-29T01:16:30;3.63;;;1.90;;
2662;SDS011;49701;48.072;7.800;2022-09-29T01:19:00;5.25;;;2.30;;
2662;SDS011;49701;48.072;7.800;2022-09-29T01:22:03;3.60;;;1.95;;
2662;SDS011;49701;48.072;7.800;2022-09-29T01:24:53;3.05;;;2.42;;
2662;SDS011;49701;48.072;7.800;2022-09-29T01:30:05;9.50;;;2.00;;
2662;SDS011;49701;48.072;7.800;2022-09-29T01:48:49;3.08;;;2.15;;
2662;SDS011;49701;48.072;7.800;2022-09-29T01:51:19;5.05;;;2.20;;
2662;SDS011;49701;48.072;7.800;2022-09-29T01:54:05;4.47;;;2.50;;
2662;SDS011;49701;48.072;7.800;2022-09-29T01:56:40;4.07;;;2.20;;
2662;SDS011;49701;48.072;7.800;2022-09-29T01:59:35;6.03;;;2.10;;
2662;SDS011;49701;48.072;7.800;2022-09-29T02:02:04;3.38;;;2.15;;
2662;SDS011;49701;48.072;7.800;2022-09-29T02:04:35;5.75;;;2.20;;
2662;SDS011;49701;48.072;7.800;2022-09-29T02:07:10;4.05;;;2.15;;
2662;SDS011;49701;48.072;7.800;2022-09-29T02:09:45;3.78;;;2.50;;
2662;SDS011;49701;48.072;7.800;2022-09-29T02:12:16;6.78;;;2.70;;
2662;SDS011;49701;48.072;7.800;2022-09-29T02:14:47;5.63;;;2.42;;
2662;SDS011;49701;48.072;7.800;2022-09-29T02:19:47;2.67;;;2.30;;
2662;SDS011;49701;48.072;7.800;2022-09-29T02:22:15;5.45;;;2.70;;
2662;SDS011;49701;48.072;7.800;2022-09-29T02:24:42;4.82;;;2.58;;
2662;SDS011;49701;48.072;7.800;2022-09-29T02:27:08;4.68;;;2.30;;
2662;SDS011;49701;48.072;7.800;2022-09-29T02:29:35;4.78;;;2.50;;
2662;SDS011;49701;48.072;7.800;2022-09-29T02:32:02;6.05;;;2.47;;
2662;SDS011;49701;48.072;7.800;2022-09-29T02:34:30;5.47;;;2.70;;
2662;SDS011;49701;48.072;7.800;2022-09-29T02:37:13;4.03;;;2.50;;
2662;SDS011;49701;48.072;7.800;2022-09-29T02:39:44;6.82;;;2.20;;
2662;SDS011;49701;48.072;7.800;2022-09-29T02:42:30;2.72;;;2.10;;
2662;SDS011;49701;48.072;7.800;2022-09-29T02:47:56;5.88;;;2.40;;
2662;SDS011;49701;48.072;7.800;2022-09-29T02:51:04;5.75;;;2.15;;
2662;SDS011;49701;48.072;7.800;2022-09-29T02:58:56;3.67;;;2.15;;
2662;SDS011;49701;48.072;7.800;2022-09-29T03:01:29;4.22;;;2.38;;
2662;SDS011;49701;48.072;7.800;2022-09-29T03:03:56;4.13;;;2.30;;
2662;SDS011;49701;48.072;7.800;2022-09-29T03:06:21;5.65;;;2.50;;
2662;SDS011;49701;48.072;7.800;2022-09-29T03:08:47;6.32;;;2.70;;
2662;SDS011;49701;48.072;7.800;2022-09-29T03:11:13;4.82;;;2.70;;
2662;SDS011;49701;48.072;7.800;2022-09-29T03:13:38;4.93;;;2.78;;
2662;SDS011;49701;48.072;7.800;2022-09-29T03:16:04;4.80;;;2.83;;
2662;SDS011;49701;48.072;7.800;2022-09-29T03:18:29;5.47;;;2.70;;
2662;SDS011;49701;48.072;7.800;2022-09-29T03:20:55;4.07;;;2.72;;
2662;SDS011;49701;48.072;7.800;2022-09-29T03:23:21;7.78;;;2.40;;
2662;SDS011;49701;48.072;7.800;2022-09-29T03:25:46;3.70;;;2.10;;
2662;SDS011;49701;48.072;7.800;2022-09-29T03:28:12;2.30;;;2.10;;
2662;SDS011;49701;48.072;7.800;2022-09-29T03:30:38;2.97;;;2.40;;
2662;SDS011;49701;48.072;7.800;2022-09-29T03:33:03;4.38;;;3.08;;
2662;SDS011;49701;48.072;7.800;2022-09-29T03:35:29;2.95;;;2.70;;
2662;SDS011;49701;48.072;7.800;2022-09-29T03:37:58;6.10;;;2.90;;
2662;SDS011;49701;48.072;7.800;2022-09-29T03:40:24;5.90;;;3.00;;
2662;SDS011;49701;48.072;7.800;2022-09-29T03:42:51;5.75;;;3.00;;
2662;SDS011;49701;48.072;7.800;2022-09-29T03:45:16;6.60;;;2.90;;
2662;SDS011;49701;48.072;7.800;2022-09-29T04:02:15;4.10;;;3.50;;
2662;SDS011;49701;48.072;7.800;2022-09-29T04:04:43;5.55;;;2.95;;
2662;SDS011;49701;48.072;7.800;2022-09-29T04:07:09;5.40;;;3.05;;
2662;SDS011;49701;48.072;7.800;2022-09-29T04:09:35;4.75;;;3.38;;
2662;SDS011;49701;48.072;7.800;2022-09-29T04:12:01;5.85;;;3.15;;
2662;SDS011;49701;48.072;7.800;2022-09-29T04:14:27;5.32;;;3.00;;
2662;SDS011;49701;48.072;7.800;2022-09-29T04:16:52;6.17;;;3.57;;
2662;SDS011;49701;48.072;7.800;2022-09-29T04:19:18;3.10;;;2.75;;
2662;SDS011;49701;48.072;7.800;2022-09-29T04:21:43;5.88;;;3.30;;
2662;SDS011;49701;48.072;7.800;2022-09-29T04:24:10;6.88;;;3.17;;
2662;SDS011;49701;48.072;7.800;2022-09-29T04:31:26;7.15;;;2.90;;
2662;SDS011;49701;48.072;7.800;2022-09-29T04:33:52;6.30;;;3.03;;
2662;SDS011;49701;48.072;7.800;2022-09-29T04:38:43;6.05;;;3.15;;
2662;SDS011;49701;48.072;7.800;2022-09-29T04:41:09;6.20;;;3.20;;
2662;SDS011;49701;48.072;7.800;2022-09-29T04:55:44;5.53;;;3.20;;
2662;SDS011;49701;48.072;7.800;2022-09-29T04:58:09;3.50;;;3.20;;
2662;SDS011;49701;48.072;7.800;2022-09-29T05:03:01;5.80;;;2.95;;
2662;SDS011;49701;48.072;7.800;2022-09-29T05:15:14;4.95;;;2.90;;
2662;SDS011;49701;48.072;7.800;2022-09-29T05:17:40;4.88;;;2.38;;
2662;SDS011;49701;48.072;7.800;2022-09-29T05:34:39;4.35;;;2.72;;
2662;SDS011;49701;48.072;7.800;2022-09-29T05:37:05;7.18;;;2.47;;
2662;SDS011;49701;48.072;7.800;2022-09-29T05:39:31;4.60;;;2.72;;
2662;SDS011;49701;48.072;7.800;2022-09-29T05:49:16;6.93;;;3.22;;
2662;SDS011;49701;48.072;7.800;2022-09-29T06:01:25;6.63;;;2.72;;
2662;SDS011;49701;48.072;7.800;2022-09-29T06:03:54;5.70;;;2.70;;
2662;SDS011;49701;48.072;7.800;2022-09-29T06:06:21;5.22;;;2.22;;
2662;SDS011;49701;48.072;7.800;2022-09-29T06:08:48;5.40;;;2.70;;
2662;SDS011;49701;48.072;7.800;2022-09-29T06:11:18;3.70;;;2.60;;
2662;SDS011;49701;48.072;7.800;2022-09-29T06:13:47;5.35;;;3.28;;
2662;SDS011;49701;48.072;7.800;2022-09-29T06:16:14;4.85;;;3.30;;
2662;SDS011;49701;48.072;7.800;2022-09-29T06:18:41;3.00;;;2.70;;
2662;SDS011;49701;48.072;7.800;2022-09-29T06:21:11;6.00;;;3.23;;
2662;SDS011;49701;48.072;7.800;2022-09-29T06:23:37;3.60;;;2.75;;
2662;SDS011;49701;48.072;7.800;2022-09-29T06:26:05;6.50;;;3.28;;
2662;SDS011;49701;48.072;7.800;2022-09-29T06:28:32;5.25;;;3.03;;
2662;SDS011;49701;48.072;7.800;2022-09-29T06:30:59;5.72;;;3.08;;
2662;SDS011;49701;48.072;7.800;2022-09-29T06:33:29;5.65;;;3.30;;
2662;SDS011;49701;48.072;7.800;2022-09-29T06:35:56;5.18;;;3.50;;
2662;SDS011;49701;48.072;7.800;2022-09-29T06:38:41;3.70;;;3.22;;
2662;SDS011;49701;48.072;7.800;2022-09-29T06:41:07;5.32;;;3.58;;
2662;SDS011;49701;48.072;7.800;2022-09-29T06:43:33;6.68;;;3.33;;
2662;SDS011;49701;48.072;7.800;2022-09-29T06:45:59;6.40;;;3.47;;
2662;SDS011;49701;48.072;7.800;2022-09-29T06:48:25;7.20;;;3.72;;
2662;SDS011;49701;48.072;7.800;2022-09-29T06:50:51;6.20;;;3.58;;
2662;SDS011;49701;48.072;7.800;2022-09-29T06:53:16;6.03;;;3.78;;
2662;SDS011;49701;48.072;7.800;2022-09-29T06:55:42;5.90;;;3.90;;
2662;SDS011;49701;48.072;7.800;2022-09-29T06:58:08;4.80;;;3.50;;
2662;SDS011;49701;48.072;7.800;2022-09-29T07:00:34;6.40;;;3.63;;
2662;SDS011;49701;48.072;7.800;2022-09-29T07:03:01;4.07;;;3.58;;
2662;SDS011;49701;48.072;7.800;2022-09-29T07:05:27;6.57;;;3.50;;
2662;SDS011;49701;48.072;7.800;2022-09-29T07:07:53;7.72;;;3.90;;
2662;SDS011;49701;48.072;7.800;2022-09-29T07:10:19;7.07;;;3.97;;
2662;SDS011;49701;48.072;7.800;2022-09-29T07:12:45;4.85;;;3.85;;
2662;SDS011;49701;48.072;7.800;2022-09-29T07:15:11;7.18;;;3.60;;
2662;SDS011;49701;48.072;7.800;2022-09-29T07:20:03;3.78;;;3.03;;
2662;SDS011;49701;48.072;7.800;2022-09-29T07:22:29;8.27;;;2.80;;
2662;SDS011;49701;48.072;7.800;2022-09-29T07:24:54;3.90;;;2.30;;
2662;SDS011;49701;48.072;7.800;2022-09-29T07:27:20;6.00;;;2.80;;
2662;SDS011;49701;48.072;7.800;2022-09-29T07:29:48;3.30;;;2.20;;
2662;SDS011;49701;48.072;7.800;2022-09-29T07:32:15;4.43;;;2.40;;
2662;SDS011;49701;48.072;7.800;2022-09-29T07:34:41;2.42;;;2.22;;
2662;SDS011;49701;48.072;7.800;2022-09-29T07:37:07;4.72;;;1.95;;
2662;SDS011;49701;48.072;7.800;2022-09-29T07:39:32;2.72;;;2.17;;
2662;SDS011;49701;48.072;7.800;2022-09-29T07:41:58;4.35;;;2.03;;
2662;SDS011;49701;48.072;7.800;2022-09-29T07:44:24;3.55;;;2.10;;
2662;SDS011;49701;48.072;7.800;2022-09-29T07:46:50;5.13;;;2.03;;
2662;SDS011;49701;48.072;7.800;2022-09-29T07:49:15;2.83;;;2.00;;
2662;SDS011;49701;48.072;7.800;2022-09-29T07:51:42;3.50;;;1.63;;
2662;SDS011;49701;48.072;7.800;2022-09-29T07:54:08;6.05;;;2.03;;
2662;SDS011;49701;48.072;7.800;2022-09-29T07:56:33;3.38;;;1.85;;
2662;SDS011;49701;48.072;7.800;2022-09-29T07:58:59;8.38;;;2.28;;
2662;SDS011;49701;48.072;7.800;2022-09-29T08:01:26;2.67;;;1.60;;
2662;SDS011;49701;48.072;7.800;2022-09-29T08:03:54;2.72;;;1.67;;
2662;SDS011;49701;48.072;7.800;2022-09-29T08:06:20;5.30;;;1.90;;
2662;SDS011;49701;48.072;7.800;2022-09-29T08:08:47;4.40;;;1.80;;
2662;SDS011;49701;48.072;7.800;2022-09-29T08:11:14;4.35;;;1.67;;
2662;SDS011;49701;48.072;7.800;2022-09-29T08:13:41;4.82;;;1.40;;
2662;SDS011;49701;48.072;7.800;2022-09-29T08:16:09;5.15;;;1.40;;
2662;SDS011;49701;48.072;7.800;2022-09-29T08:18:36;2.20;;;1.33;;
2662;SDS011;49701;48.072;7.800;2022-09-29T08:21:03;3.33;;;1.83;;
2662;SDS011;49701;48.072;7.800;2022-09-29T08:23:29;2.17;;;1.70;;
2662;SDS011;49701;48.072;7.800;2022-09-29T08:26:03;1.77;;;1.67;;
2662;SDS011;49701;48.072;7.800;2022-09-29T08:28:40;2.45;;;1.95;;
2662;SDS011;49701;48.072;7.800;2022-09-29T08:31:07;6.43;;;1.95;;
2662;SDS011;49701;48.072;7.800;2022-09-29T08:33:34;3.85;;;1.65;;
2662;SDS011;49701;48.072;7.800;2022-09-29T08:36:00;4.25;;;1.80;;
2662;SDS011;49701;48.072;7.800;2022-09-29T08:38:29;3.40;;;1.90;;
2662;SDS011;49701;48.072;7.800;2022-09-29T08:40:56;1.88;;;1.48;;
2662;SDS011;49701;48.072;7.800;2022-09-29T08:43:31;2.63;;;1.45;;
2662;SDS011;49701;48.072;7.800;2022-09-29T08:46:06;1.38;;;1.27;;
2662;SDS011;49701;48.072;7.800;2022-09-29T08:48:33;4.85;;;1.35;;
2662;SDS011;49701;48.072;7.800;2022-09-29T08:51:03;4.38;;;1.33;;
2662;SDS011;49701;48.072;7.800;2022-09-29T08:53:33;4.32;;;1.48;;
2662;SDS011;49701;48.072;7.800;2022-09-29T08:56:02;2.83;;;1.48;;
2662;SDS011;49701;48.072;7.800;2022-09-29T08:58:30;3.97;;;1.58;;
2662;SDS011;49701;48.072;7.800;2022-09-29T09:01:12;2.60;;;1.48;;
2662;SDS011;49701;48.072;7.800;2022-09-29T09:22:59;2.85;;;1.10;;
2662;SDS011;49701;48.072;7.800;2022-09-29T09:25:29;3.47;;;0.90;;
2662;SDS011;49701;48.072;7.800;2022-09-29T09:30:50;2.40;;;1.13;;
2662;SDS011;49701;48.072;7.800;2022-09-29T09:35:56;4.28;;;1.17;;
2662;SDS011;49701;48.072;7.800;2022-09-29T09:38:40;2.05;;;1.23;;
2662;SDS011;49701;48.072;7.800;2022-09-29T09:41:21;2.28;;;1.20;;
2662;SDS011;49701;48.072;7.800;2022-09-29T09:43:50;2.88;;;1.42;;
2662;SDS011;49701;48.072;7.800;2022-09-29T09:49:19;2.55;;;1.02;;
2662;SDS011;49701;48.072;7.800;2022-09-29T09:51:53;2.22;;;1.10;;
2662;SDS011;49701;48.072;7.800;2022-09-29T09:54:45;2.13;;;0.90;;
2662;SDS011;49701;48.072;7.800;2022-09-29T10:00:03;2.55;;;1.10;;
2662;SDS011;49701;48.072;7.800;2022-09-29T10:05:00;3.17;;;1.90;;
2662;SDS011;49701;48.072;7.800;2022-09-29T10:07:27;5.10;;;2.03;;
2662;SDS011;49701;48.072;7.800;2022-09-29T10:09:54;4.43;;;2.08;;
2662;SDS011;49701;48.072;7.800;2022-09-29T10:12:22;4.13;;;2.10;;
2662;SDS011;49701;48.072;7.800;2022-09-29T10:14:52;2.47;;;1.45;;
2662;SDS011;49701;48.072;7.800;2022-09-29T10:17:24;3.00;;;1.33;;
2662;SDS011;49701;48.072;7.800;2022-09-29T10:19:58;3.00;;;1.38;;
2662;SDS011;49701;48.072;7.800;2022-09-29T10:22:26;3.53;;;1.17;;
2662;SDS011;49701;48.072;7.800;2022-09-29T10:25:37;4.25;;;1.00;;
2662;SDS011;49701;48.072;7.800;2022-09-29T10:27:39;2.38;;;0.90;;
2662;SDS011;49701;48.072;7.800;2022-09-29T10:33:07;6.22;;;1.38;;
2662;SDS011;49701;48.072;7.800;2022-09-29T10:35:40;3.70;;;0.80;;
2662;SDS011;49701;48.072;7.800;2022-09-29T10:38:15;1.63;;;1.10;;
2662;SDS011;49701;48.072;7.800;2022-09-29T10:41:02;1.35;;;1.10;;
2662;SDS011;49701;48.072;7.800;2022-09-29T10:43:36;3.60;;;1.58;;
2662;SDS011;49701;48.072;7.800;2022-09-29T10:46:04;1.80;;;1.20;;
2662;SDS011;49701;48.072;7.800;2022-09-29T10:49:06;2.67;;;1.50;;
2662;SDS011;49701;48.072;7.800;2022-09-29T10:51:33;3.38;;;1.88;;
2662;SDS011;49701;48.072;7.800;2022-09-29T10:54:04;3.90;;;1.65;;
2662;SDS011;49701;48.072;7.800;2022-09-29T10:56:32;2.70;;;1.90;;
2662;SDS011;49701;48.072;7.800;2022-09-29T10:58:58;3.38;;;1.10;;
2662;SDS011;49701;48.072;7.800;2022-09-29T11:01:26;6.78;;;1.10;;
2662;SDS011;49701;48.072;7.800;2022-09-29T11:03:55;2.22;;;1.23;;
2662;SDS011;49701;48.072;7.800;2022-09-29T11:06:36;1.97;;;1.47;;
2662;SDS011;49701;48.072;7.800;2022-09-29T11:16:52;1.15;;;0.70;;
2662;SDS011;49701;48.072;7.800;2022-09-29T11:19:19;0.88;;;0.60;;
2662;SDS011;49701;48.072;7.800;2022-09-29T11:30:18;4.22;;;1.00;;
2662;SDS011;49701;48.072;7.800;2022-09-29T11:35:36;2.55;;;1.00;;
2662;SDS011;49701;48.072;7.800;2022-09-29T11:38:16;4.75;;;1.30;;
2662;SDS011;49701;48.072;7.800;2022-09-29T11:43:33;2.10;;;0.90;;
2662;SDS011;49701;48.072;7.800;2022-09-29T11:46:26;1.60;;;0.98;;
2662;SDS011;49701;48.072;7.800;2022-09-29T11:57:58;4.20;;;1.52;;
2662;SDS011;49701;48.072;7.800;2022-09-29T12:03:47;2.22;;;1.70;;
2662;SDS011;49701;48.072;7.800;2022-09-29T12:14:32;2.10;;;0.60;;
2662;SDS011;49701;48.072;7.800;2022-09-29T12:17:08;0.85;;;0.55;;
2662;SDS011;49701;48.072;7.800;2022-09-29T12:19:41;0.70;;;0.60;;
2662;SDS011;49701;48.072;7.800;2022-09-29T12:22:10;0.70;;;0.43;;
2662;SDS011;49701;48.072;7.800;2022-09-29T12:24:44;0.40;;;0.35;;
2662;SDS011;49701;48.072;7.800;2022-09-29T12:27:17;0.95;;;0.70;;
2662;SDS011;49701;48.072;7.800;2022-09-29T12:32:24;1.13;;;0.50;;
2662;SDS011;49701;48.072;7.800;2022-09-29T12:35:13;1.52;;;0.90;;
2662;SDS011;49701;48.072;7.800;2022-09-29T12:37:51;1.83;;;0.88;;
2662;SDS011;49701;48.072;7.800;2022-09-29T12:40:27;3.25;;;1.50;;
2662;SDS011;49701;48.072;7.800;2022-09-29T12:48:39;0.82;;;0.60;;
2662;SDS011;49701;48.072;7.800;2022-09-29T12:51:35;1.23;;;0.60;;
2662;SDS011;49701;48.072;7.800;2022-09-29T12:56:57;1.45;;;0.80;;
2662;SDS011;49701;48.072;7.800;2022-09-29T13:00:17;1.35;;;0.90;;
2662;SDS011;49701;48.072;7.800;2022-09-29T13:05:23;1.13;;;0.85;;
2662;SDS011;49701;48.072;7.800;2022-09-29T13:08:23;1.58;;;1.10;;
2662;SDS011;49701;48.072;7.800;2022-09-29T13:19:35;1.38;;;0.80;;
2662;SDS011;49701;48.072;7.800;2022-09-29T13:27:55;2.45;;;1.40;;
2662;SDS011;49701;48.072;7.800;2022-09-29T13:30:24;1.60;;;1.25;;
2662;SDS011;49701;48.072;7.800;2022-09-29T13:35:40;1.63;;;1.30;;
2662;SDS011;49701;48.072;7.800;2022-09-29T13:38:30;1.70;;;1.30;;
2662;SDS011;49701;48.072;7.800;2022-09-29T13:41:13;1.98;;;1.10;;
2662;SDS011;49701;48.072;7.800;2022-09-29T13:49:01;2.08;;;1.17;;
2662;SDS011;49701;48.072;7.800;2022-09-29T13:51:29;2.67;;;1.10;;
2662;SDS011;49701;48.072;7.800;2022-09-29T13:59:41;2.60;;;1.38;;
2662;SDS011;49701;48.072;7.800;2022-09-29T14:05:02;2.15;;;1.30;;
2662;SDS011;49701;48.072;7.800;2022-09-29T14:07:34;2.72;;;1.30;;
2662;SDS011;49701;48.072;7.800;2022-09-29T14:15:34;1.10;;;0.80;;
2662;SDS011;49701;48.072;7.800;2022-09-29T14:18:05;1.05;;;0.75;;
2662;SDS011;49701;48.072;7.800;2022-09-29T14:20:43;1.48;;;0.90;;
2662;SDS011;49701;48.072;7.800;2022-09-29T14:23:45;0.80;;;0.80;;
2662;SDS011;49701;48.072;7.800;2022-09-29T14:29:11;1.52;;;0.68;;
2662;SDS011;49701;48.072;7.800;2022-09-29T14:31:49;2.00;;;0.88;;
2662;SDS011;49701;48.072;7.800;2022-09-29T14:34:19;0.90;;;0.90;;
2662;SDS011;49701;48.072;7.800;2022-09-29T14:36:47;1.67;;;1.10;;
2662;SDS011;49701;48.072;7.800;2022-09-29T14:39:15;2.13;;;1.50;;
2662;SDS011;49701;48.072;7.800;2022-09-29T14:41:42;1.30;;;0.90;;
2662;SDS011;49701;48.072;7.800;2022-09-29T14:44:11;2.35;;;0.80;;
2662;SDS011;49701;48.072;7.800;2022-09-29T14:47:36;1.00;;;0.60;;
2662;SDS011;49701;48.072;7.800;2022-09-29T14:50:36;1.25;;;0.73;;
2662;SDS011;49701;48.072;7.800;2022-09-29T15:01:26;1.23;;;0.80;;
2662;SDS011;49701;48.072;7.800;2022-09-29T15:03:57;2.20;;;0.90;;
2662;SDS011;49701;48.072;7.800;2022-09-29T15:06:29;1.35;;;0.90;;
2662;SDS011;49701;48.072;7.800;2022-09-29T15:08:56;1.17;;;0.70;;
2662;SDS011;49701;48.072;7.800;2022-09-29T15:13:51;0.85;;;0.85;;
2662;SDS011;49701;48.072;7.800;2022-09-29T15:21:54;1.25;;;0.80;;
2662;SDS011;49701;48.072;7.800;2022-09-29T15:29:53;1.55;;;0.70;;
2662;SDS011;49701;48.072;7.800;2022-09-29T15:32:26;1.95;;;0.90;;
2662;SDS011;49701;48.072;7.800;2022-09-29T15:35:01;2.90;;;1.02;;
2662;SDS011;49701;48.072;7.800;2022-09-29T15:40:20;3.45;;;1.05;;
2662;SDS011;49701;48.072;7.800;2022-09-29T15:42:48;3.03;;;1.00;;
2662;SDS011;49701;48.072;7.800;2022-09-29T15:47:45;4.40;;;1.88;;
2662;SDS011;49701;48.072;7.800;2022-09-29T15:50:21;3.28;;;1.65;;
2662;SDS011;49701;48.072;7.800;2022-09-29T15:52:48;2.63;;;1.55;;
2662;SDS011;49701;48.072;7.800;2022-09-29T15:55:16;2.15;;;1.60;;
2662;SDS011;49701;48.072;7.800;2022-09-29T15:57:50;1.42;;;1.20;;
2662;SDS011;49701;48.072;7.800;2022-09-29T16:00:42;2.25;;;1.30;;
2662;SDS011;49701;48.072;7.800;2022-09-29T16:03:13;2.00;;;0.95;;
2662;SDS011;49701;48.072;7.800;2022-09-29T16:06:00;2.15;;;1.02;;
2662;SDS011;49701;48.072;7.800;2022-09-29T16:08:39;1.42;;;1.10;;
2662;SDS011;49701;48.072;7.800;2022-09-29T16:11:29;1.20;;;1.10;;
2662;SDS011;49701;48.072;7.800;2022-09-29T16:14:00;2.08;;;1.17;;
2662;SDS011;49701;48.072;7.800;2022-09-29T16:16:33;1.08;;;1.00;;
2662;SDS011;49701;48.072;7.800;2022-09-29T16:19:22;2.45;;;1.20;;
2662;SDS011;49701;48.072;7.800;2022-09-29T16:21:51;2.95;;;2.45;;
2662;SDS011;49701;48.072;7.800;2022-09-29T16:24:19;2.78;;;1.95;;
2662;SDS011;49701;48.072;7.800;2022-09-29T16:26:49;1.73;;;1.10;;
2662;SDS011;49701;48.072;7.800;2022-09-29T16:31:43;1.90;;;1.27;;
2662;SDS011;49701;48.072;7.800;2022-09-29T16:39:14;2.65;;;1.30;;
2662;SDS011;49701;48.072;7.800;2022-09-29T16:41:41;1.88;;;1.25;;
2662;SDS011;49701;48.072;7.800;2022-09-29T16:49:45;3.75;;;1.70;;
2662;SDS011;49701;48.072;7.800;2022-09-29T16:52:18;2.58;;;2.03;;
2662;SDS011;49701;48.072;7.800;2022-09-29T16:57:54;2.83;;;1.70;;
2662;SDS011;49701;48.072;7.800;2022-09-29T17:00:23;24.85;;;4.18;;
2662;SDS011;49701;48.072;7.800;2022-09-29T17:02:52;5.78;;;3.80;;
2662;SDS011;49701;48.072;7.800;2022-09-29T17:05:19;7.20;;;4.93;;
2662;SDS011;49701;48.072;7.800;2022-09-29T17:07:45;8.48;;;4.55;;
2662;SDS011;49701;48.072;7.800;2022-09-29T17:10:14;7.50;;;3.85;;
2662;SDS011;49701;48.072;7.800;2022-09-29T17:12:43;25.92;;;13.05;;
2662;SDS011;49701;48.072;7.800;2022-09-29T17:15:12;6.18;;;3.90;;
2662;SDS011;49701;48.072;7.800;2022-09-29T17:17:38;5.28;;;2.70;;
2662;SDS011;49701;48.072;7.800;2022-09-29T17:20:08;4.30;;;2.38;;
2662;SDS011;49701;48.072;7.800;2022-09-29T17:22:37;5.30;;;2.33;;
2662;SDS011;49701;48.072;7.800;2022-09-29T17:25:03;6.25;;;2.20;;
2662;SDS011;49701;48.072;7.800;2022-09-29T17:27:30;4.07;;;1.80;;
2662;SDS011;49701;48.072;7.800;2022-09-29T17:30:19;3.42;;;1.75;;
2662;SDS011;49701;48.072;7.800;2022-09-29T17:32:47;3.22;;;1.90;;
2662;SDS011;49701;48.072;7.800;2022-09-29T17:35:22;3.72;;;2.10;;
2662;SDS011;49701;48.072;7.800;2022-09-29T17:37:50;3.38;;;1.80;;
2662;SDS011;49701;48.072;7.800;2022-09-29T17:40:19;3.22;;;1.83;;
2662;SDS011;49701;48.072;7.800;2022-09-29T17:42:48;3.50;;;2.00;;
2662;SDS011;49701;48.072;7.800;2022-09-29T17:45:15;6.53;;;1.70;;
2662;SDS011;49701;48.072;7.800;2022-09-29T17:47:42;3.90;;;1.92;;
2662;SDS011;49701;48.072;7.800;2022-09-29T17:50:15;3.00;;;2.10;;
2662;SDS011;49701;48.072;7.800;2022-09-29T17:52:48;2.92;;;2.00;;
2662;SDS011;49701;48.072;7.800;2022-09-29T17:55:13;4.72;;;2.40;;
2662;SDS011;49701;48.072;7.800;2022-09-29T17:57:39;2.53;;;2.05;;
2662;SDS011;49701;48.072;7.800;2022-09-29T18:00:49;3.00;;;2.03;;
2662;SDS011;49701;48.072;7.800;2022-09-29T18:02:57;2.63;;;2.08;;
2662;SDS011;49701;48.072;7.800;2022-09-29T18:05:23;3.92;;;1.98;;
2662;SDS011;49701;48.072;7.800;2022-09-29T18:07:51;4.57;;;1.75;;
2662;SDS011;49701;48.072;7.800;2022-09-29T18:10:19;2.92;;;2.05;;
2662;SDS011;49701;48.072;7.800;2022-09-29T18:12:45;3.45;;;2.05;;
2662;SDS011;49701;48.072;7.800;2022-09-29T18:15:10;5.45;;;2.60;;
2662;SDS011;49701;48.072;7.800;2022-09-29T18:17:36;4.00;;;2.25;;
2662;SDS011;49701;48.072;7.800;2022-09-29T18:20:16;5.63;;;2.47;;
2662;SDS011;49701;48.072;7.800;2022-09-29T18:22:43;4.40;;;3.03;;
2662;SDS011;49701;48.072;7.800;2022-09-29T18:25:11;7.80;;;5.28;;
2662;SDS011;49701;48.072;7.800;2022-09-29T18:27:38;5.03;;;3.38;;
2662;SDS011;49701;48.072;7.800;2022-09-29T18:30:11;4.38;;;2.25;;
2662;SDS011;49701;48.072;7.800;2022-09-29T18:32:40;5.13;;;2.20;;
2662;SDS011;49701;48.072;7.800;2022-09-29T18:35:09;4.25;;;3.00;;
2662;SDS011;49701;48.072;7.800;2022-09-29T18:37:39;3.83;;;2.70;;
2662;SDS011;49701;48.072;7.800;2022-09-29T18:40:04;4.13;;;2.33;;
2662;SDS011;49701;48.072;7.800;2022-09-29T18:42:30;3.78;;;2.00;;
2662;SDS011;49701;48.072;7.800;2022-09-29T18:44:56;4.72;;;2.30;;
2662;SDS011;49701;48.072;7.800;2022-09-29T18:47:21;2.40;;;1.98;;
2662;SDS011;49701;48.072;7.800;2022-09-29T18:49:47;2.60;;;1.77;;
2662;SDS011;49701;48.072;7.800;2022-09-29T18:52:13;3.15;;;1.90;;
2662;SDS011;49701;48.072;7.800;2022-09-29T18:54:38;3.42;;;1.95;;
2662;SDS011;49701;48.072;7.800;2022-09-29T18:57:04;3.58;;;2.50;;
2662;SDS011;49701;48.072;7.800;2022-09-29T18:59:31;3.80;;;2.05;;
2662;SDS011;49701;48.072;7.800;2022-09-29T19:01:57;6.65;;;2.30;;
2662;SDS011;49701;48.072;7.800;2022-09-29T19:04:23;5.07;;;2.10;;
2662;SDS011;49701;48.072;7.800;2022-09-29T19:06:49;4.07;;;2.00;;
2662;SDS011;49701;48.072;7.800;2022-09-29T19:09:15;3.13;;;2.10;;
2662;SDS011;49701;48.072;7.800;2022-09-29T19:11:41;4.88;;;2.08;;
2662;SDS011;49701;48.072;7.800;2022-09-29T19:14:07;3.97;;;2.10;;
2662;SDS011;49701;48.072;7.800;2022-09-29T19:16:33;2.30;;;2.10;;
2662;SDS011;49701;48.072;7.800;2022-09-29T19:18:58;3.90;;;2.05;;
2662;SDS011;49701;48.072;7.800;2022-09-29T19:21:24;4.30;;;2.05;;
2662;SDS011;49701;48.072;7.800;2022-09-29T19:23:49;4.90;;;2.03;;
2662;SDS011;49701;48.072;7.800;2022-09-29T19:26:16;2.97;;;1.98;;
2662;SDS011;49701;48.072;7.800;2022-09-29T19:28:43;4.35;;;2.30;;
2662;SDS011;49701;48.072;7.800;2022-09-29T19:31:14;7.15;;;2.92;;
2662;SDS011;49701;48.072;7.800;2022-09-29T19:33:43;4.32;;;2.28;;
2662;SDS011;49701;48.072;7.800;2022-09-29T19:36:12;5.80;;;2.28;;
2662;SDS011;49701;48.072;7.800;2022-09-29T19:38:43;5.28;;;2.60;;
2662;SDS011;49701;48.072;7.800;2022-09-29T19:41:13;2.50;;;2.20;;
2662;SDS011;49701;48.072;7.800;2022-09-29T19:43:41;4.03;;;2.25;;
2662;SDS011;49701;48.072;7.800;2022-09-29T19:46:08;3.75;;;2.60;;
2662;SDS011;49701;48.072;7.800;2022-09-29T19:48:34;2.60;;;2.33;;
2662;SDS011;49701;48.072;7.800;2022-09-29T19:51:00;4.50;;;2.55;;
2662;SDS011;49701;48.072;7.800;2022-09-29T19:53:44;5.07;;;3.03;;
2662;SDS011;49701;48.072;7.800;2022-09-29T19:56:11;4.95;;;3.00;;
2662;SDS011;49701;48.072;7.800;2022-09-29T19:58:37;4.55;;;3.05;;
2662;SDS011;49701;48.072;7.800;2022-09-29T20:01:05;7.47;;;3.60;;
2662;SDS011;49701;48.072;7.800;2022-09-29T20:03:32;7.47;;;3.70;;
2662;SDS011;49701;48.072;7.800;2022-09-29T20:06:01;6.10;;;3.70;;
2662;SDS011;49701;48.072;7.800;2022-09-29T20:08:28;6.90;;;4.10;;
2662;SDS011;49701;48.072;7.800;2022-09-29T20:10:54;6.30;;;4.00;;
2662;SDS011;49701;48.072;7.800;2022-09-29T20:13:29;5.93;;;3.80;;
2662;SDS011;49701;48.072;7.800;2022-09-29T20:15:55;8.10;;;4.97;;
2662;SDS011;49701;48.072;7.800;2022-09-29T20:18:20;12.52;;;4.93;;
2662;SDS011;49701;48.072;7.800;2022-09-29T20:20:46;10.82;;;6.20;;
2662;SDS011;49701;48.072;7.800;2022-09-29T20:23:15;11.80;;;5.05;;